sensor_id;sensor_type;location;lat;lon;timestamp;temperature;humidity
12893;DHT22;6514;48.606;9.222;2024-01-10T00:00:47;-5.50;99.90
12893;DHT22;6514;48.606;9.222;2024-01-10T00:03:13;-5.40;99.90
12893;DHT22;6514;48.606;9.222;2024-01-10T00:05:40;-5.40;99.90
12893;DHT22;6514;48.606;9.222;2024-01-10T00:08:07;-5.40;99.90
12893;DHT22;6514;48.606;9.222;2024-01-10T00:10:34;-5.40;99.90
12893;DHT22;6514;48.606;9.222;2024-01-10T00:13:01;-5.40;99.90
12893;DHT22;6514;48.606;9.222;2024-01-10T00:15:29;-5.40;99.90
12893;DHT22;6514;48.606;9.222;2024-01-10T00:17:55;-5.40;99.90
12893;DHT22;6514;48.606;9.222;2024-01-10T00:20:22;-5.40;99.90
12893;DHT22;6514;48.606;9.222;2024-01-10T00:22:49;-5.40;99.90
12893;DHT22;6514;48.606;9.222;2024-01-10T00:25:16;-5.40;99.90
12893;DHT22;6514;48.606;9.222;2024-01-10T00:27:43;-5.30;99.90
12893;DHT22;6514;48.606;9.222;2024-01-10T00:30:10;-5.30;99.90
12893;DHT22;6514;48.606;9.222;2024-01-10T00:32:38;-5.20;99.90
12893;DHT22;6514;48.606;9.222;2024-01-10T00:35:05;-5.20;99.90
12893;DHT22;6514;48.606;9.222;2024-01-10T00:37:32;-5.20;99.90
12893;DHT22;6514;48.606;9.222;2024-01-10T00:39:59;-5.10;99.90
12893;DHT22;6514;48.606;9.222;2024-01-10T00:42:25;-5.10;99.90
12893;DHT22;6514;48.606;9.222;2024-01-10T00:44:52;-5.00;99.90
12893;DHT22;6514;48.606;9.222;2024-01-10T00:47:19;-5.00;99.90
12893;DHT22;6514;48.606;9.222;2024-01-10T00:49:47;-5.00;99.90
12893;DHT22;6514;48.606;9.222;2024-01-10T00:52:14;-4.80;99.90
12893;DHT22;6514;48.606;9.222;2024-01-10T00:54:41;-4.80;99.90
12893;DHT22;6514;48.606;9.222;2024-01-10T00:57:09;-4.70;99.90
12893;DHT22;6514;48.606;9.222;2024-01-10T00:59:36;-4.60;99.90
12893;DHT22;6514;48.606;9.222;2024-01-10T01:02:03;-4.70;99.90
12893;DHT22;6514;48.606;9.222;2024-01-10T01:04:30;-4.60;99.90
12893;DHT22;6514;48.606;9.222;2024-01-10T01:06:58;-4.60;99.90
12893;DHT22;6514;48.606;9.222;2024-01-10T01:09:25;-4.60;99.90
12893;DHT22;6514;48.606;9.222;2024-01-10T01:11:52;-4.60;99.90
12893;DHT22;6514;48.606;9.222;2024-01-10T01:14:18;-4.50;99.90
12893;DHT22;6514;48.606;9.222;2024-01-10T01:16:45;-4.50;99.90
12893;DHT22;6514;48.606;9.222;2024-01-10T01:19:12;-4.50;99.90
12893;DHT22;6514;48.606;9.222;2024-01-10T01:21:39;-4.50;99.90
12893;DHT22;6514;48.606;9.222;2024-01-10T01:24:07;-4.50;99.90
12893;DHT22;6514;48.606;9.222;2024-01-10T01:26:34;-4.50;99.90
12893;DHT22;6514;48.606;9.222;2024-01-10T01:29:00;-4.40;99.90
12893;DHT22;6514;48.606;9.222;2024-01-10T01:31:27;-4.40;99.90
12893;DHT22;6514;48.606;9.222;2024-01-10T01:33:54;-4.40;99.90
12893;DHT22;6514;48.606;9.222;2024-01-10T01:36:21;-4.40;99.90
12893;DHT22;6514;48.606;9.222;2024-01-10T01:38:48;-4.40;99.90
12893;DHT22;6514;48.606;9.222;2024-01-10T01:41:16;-4.40;99.90
12893;DHT22;6514;48.606;9.222;2024-01-10T01:43:43;-4.50;99.90
12893;DHT22;6514;48.606;9.222;2024-01-10T01:46:11;-4.50;99.90
12893;DHT22;6514;48.606;9.222;2024-01-10T01:48:38;-4.50;99.90
12893;DHT22;6514;48.606;9.222;2024-01-10T01:51:06;-4.50;99.90
12893;DHT22;6514;48.606;9.222;2024-01-10T01:53:34;-4.50;99.90
12893;DHT22;6514;48.606;9.222;2024-01-10T01:56:04;-4.50;99.90
12893;DHT22;6514;48.606;9.222;2024-01-10T01:58:34;-4.50;99.90
12893;DHT22;6514;48.606;9.222;2024-01-10T02:01:02;-4.50;99.90
12893;DHT22;6514;48.606;9.222;2024-01-10T02:03:30;-4.50;99.90
12893;DHT22;6514;48.606;9.222;2024-01-10T02:05:57;-4.40;99.90
12893;DHT22;6514;48.606;9.222;2024-01-10T02:08:29;-4.40;99.90
12893;DHT22;6514;48.606;9.222;2024-01-10T02:10:56;-4.40;99.90
12893;DHT22;6514;48.606;9.222;2024-01-10T02:13:22;-4.40;99.90
12893;DHT22;6514;48.606;9.222;2024-01-10T02:15:51;-4.40;99.90
12893;DHT22;6514;48.606;9.222;2024-01-10T02:18:18;-4.40;99.90
12893;DHT22;6514;48.606;9.222;2024-01-10T02:20:45;-4.40;99.90
12893;DHT22;6514;48.606;9.222;2024-01-10T02:23:13;-4.30;99.90
12893;DHT22;6514;48.606;9.222;2024-01-10T02:25:42;-4.30;99.90
12893;DHT22;6514;48.606;9.222;2024-01-10T02:28:09;-4.30;99.90
12893;DHT22;6514;48.606;9.222;2024-01-10T02:30:36;-4.20;99.90
12893;DHT22;6514;48.606;9.222;2024-01-10T02:33:02;-4.20;99.90
12893;DHT22;6514;48.606;9.222;2024-01-10T02:35:29;-4.20;99.90
12893;DHT22;6514;48.606;9.222;2024-01-10T02:37:58;-4.20;99.90
12893;DHT22;6514;48.606;9.222;2024-01-10T02:40:25;-4.10;99.90
12893;DHT22;6514;48.606;9.222;2024-01-10T02:42:53;-4.10;99.90
12893;DHT22;6514;48.606;9.222;2024-01-10T02:45:20;-4.10;99.90
12893;DHT22;6514;48.606;9.222;2024-01-10T02:47:47;-4.00;99.90
12893;DHT22;6514;48.606;9.222;2024-01-10T02:50:14;-4.00;99.90
12893;DHT22;6514;48.606;9.222;2024-01-10T02:52:42;-3.90;99.90
12893;DHT22;6514;48.606;9.222;2024-01-10T02:55:09;-4.00;99.90
12893;DHT22;6514;48.606;9.222;2024-01-10T02:57:35;-4.00;99.90
12893;DHT22;6514;48.606;9.222;2024-01-10T03:00:08;-3.90;99.90
12893;DHT22;6514;48.606;9.222;2024-01-10T03:02:34;-3.90;99.90
12893;DHT22;6514;48.606;9.222;2024-01-10T03:05:02;-4.00;99.90
12893;DHT22;6514;48.606;9.222;2024-01-10T03:07:31;-4.00;99.90
12893;DHT22;6514;48.606;9.222;2024-01-10T03:09:57;-4.00;99.90
12893;DHT22;6514;48.606;9.222;2024-01-10T03:12:24;-4.00;99.90
12893;DHT22;6514;48.606;9.222;2024-01-10T03:14:51;-3.90;99.90
12893;DHT22;6514;48.606;9.222;2024-01-10T03:17:19;-4.00;99.90
12893;DHT22;6514;48.606;9.222;2024-01-10T03:19:46;-4.00;99.90
12893;DHT22;6514;48.606;9.222;2024-01-10T03:22:16;-3.90;99.90
12893;DHT22;6514;48.606;9.222;2024-01-10T03:24:43;-4.00;99.90
12893;DHT22;6514;48.606;9.222;2024-01-10T03:27:10;-4.00;99.90
12893;DHT22;6514;48.606;9.222;2024-01-10T03:29:36;-4.00;99.90
12893;DHT22;6514;48.606;9.222;2024-01-10T03:32:04;-4.10;99.90
12893;DHT22;6514;48.606;9.222;2024-01-10T03:34:32;-4.10;99.90
12893;DHT22;6514;48.606;9.222;2024-01-10T03:36:59;-4.20;99.90
12893;DHT22;6514;48.606;9.222;2024-01-10T03:39:25;-4.20;99.90
12893;DHT22;6514;48.606;9.222;2024-01-10T03:41:52;-4.20;99.90
12893;DHT22;6514;48.606;9.222;2024-01-10T03:44:19;-4.20;99.90
12893;DHT22;6514;48.606;9.222;2024-01-10T03:46:46;-4.30;99.90
12893;DHT22;6514;48.606;9.222;2024-01-10T03:49:12;-4.20;99.90
12893;DHT22;6514;48.606;9.222;2024-01-10T03:51:41;-4.30;99.90
12893;DHT22;6514;48.606;9.222;2024-01-10T03:54:08;-4.30;99.90
12893;DHT22;6514;48.606;9.222;2024-01-10T03:56:34;-4.30;99.90
12893;DHT22;6514;48.606;9.222;2024-01-10T03:59:09;-4.20;99.90
12893;DHT22;6514;48.606;9.222;2024-01-10T04:01:38;-4.30;99.90
12893;DHT22;6514;48.606;9.222;2024-01-10T04:04:05;-4.20;99.90
12893;DHT22;6514;48.606;9.222;2024-01-10T04:06:32;-4.30;99.90
12893;DHT22;6514;48.606;9.222;2024-01-10T04:09:01;-4.20;99.90
12893;DHT22;6514;48.606;9.222;2024-01-10T04:11:28;-4.20;99.90
12893;DHT22;6514;48.606;9.222;2024-01-10T04:13:55;-4.10;99.90
12893;DHT22;6514;48.606;9.222;2024-01-10T04:16:21;-4.20;99.90
12893;DHT22;6514;48.606;9.222;2024-01-10T04:18:48;-4.20;99.90
12893;DHT22;6514;48.606;9.222;2024-01-10T04:21:15;-4.20;99.90
12893;DHT22;6514;48.606;9.222;2024-01-10T04:23:42;-4.10;99.90
12893;DHT22;6514;48.606;9.222;2024-01-10T04:26:10;-4.10;99.90
12893;DHT22;6514;48.606;9.222;2024-01-10T04:28:37;-4.10;99.90
12893;DHT22;6514;48.606;9.222;2024-01-10T04:31:09;-4.10;99.90
12893;DHT22;6514;48.606;9.222;2024-01-10T04:33:35;-4.20;99.90
12893;DHT22;6514;48.606;9.222;2024-01-10T04:36:03;-4.20;99.90
12893;DHT22;6514;48.606;9.222;2024-01-10T04:38:30;-4.20;99.90
12893;DHT22;6514;48.606;9.222;2024-01-10T04:41:00;-4.20;99.90
12893;DHT22;6514;48.606;9.222;2024-01-10T04:43:28;-4.30;99.90
12893;DHT22;6514;48.606;9.222;2024-01-10T04:45:55;-4.30;99.90
12893;DHT22;6514;48.606;9.222;2024-01-10T04:48:24;-4.30;99.90
12893;DHT22;6514;48.606;9.222;2024-01-10T04:50:51;-4.30;99.90
12893;DHT22;6514;48.606;9.222;2024-01-10T04:53:18;-4.30;99.90
12893;DHT22;6514;48.606;9.222;2024-01-10T04:55:44;-4.30;99.90
12893;DHT22;6514;48.606;9.222;2024-01-10T04:58:11;-4.30;99.90
12893;DHT22;6514;48.606;9.222;2024-01-10T05:00:39;-4.30;99.90
12893;DHT22;6514;48.606;9.222;2024-01-10T05:03:07;-4.40;99.90
12893;DHT22;6514;48.606;9.222;2024-01-10T05:05:34;-4.40;99.90
12893;DHT22;6514;48.606;9.222;2024-01-10T05:08:01;-4.50;99.90
12893;DHT22;6514;48.606;9.222;2024-01-10T05:10:27;-4.50;99.90
12893;DHT22;6514;48.606;9.222;2024-01-10T05:12:54;-4.50;99.90
12893;DHT22;6514;48.606;9.222;2024-01-10T05:15:21;-4.60;99.90
12893;DHT22;6514;48.606;9.222;2024-01-10T05:17:51;-4.60;99.90
12893;DHT22;6514;48.606;9.222;2024-01-10T05:20:18;-4.60;99.90
12893;DHT22;6514;48.606;9.222;2024-01-10T05:22:45;-4.60;99.90
12893;DHT22;6514;48.606;9.222;2024-01-10T05:25:11;-4.70;99.90
12893;DHT22;6514;48.606;9.222;2024-01-10T05:27:38;-4.70;99.90
12893;DHT22;6514;48.606;9.222;2024-01-10T05:30:06;-4.80;99.90
12893;DHT22;6514;48.606;9.222;2024-01-10T05:32:33;-4.80;99.90
12893;DHT22;6514;48.606;9.222;2024-01-10T05:35:04;-4.80;99.90
12893;DHT22;6514;48.606;9.222;2024-01-10T05:37:31;-4.80;99.90
12893;DHT22;6514;48.606;9.222;2024-01-10T05:39:58;-4.80;99.90
12893;DHT22;6514;48.606;9.222;2024-01-10T05:42:25;-4.80;99.90
12893;DHT22;6514;48.606;9.222;2024-01-10T05:44:52;-4.80;99.90
12893;DHT22;6514;48.606;9.222;2024-01-10T05:47:18;-5.70;99.90
12893;DHT22;6514;48.606;9.222;2024-01-10T05:49:45;-4.80;99.90
12893;DHT22;6514;48.606;9.222;2024-01-10T05:52:13;-4.80;99.90
12893;DHT22;6514;48.606;9.222;2024-01-10T05:54:40;-4.80;99.90
12893;DHT22;6514;48.606;9.222;2024-01-10T05:57:07;-4.90;99.90
12893;DHT22;6514;48.606;9.222;2024-01-10T05:59:34;-5.00;99.90
12893;DHT22;6514;48.606;9.222;2024-01-10T06:02:02;-5.00;99.90
12893;DHT22;6514;48.606;9.222;2024-01-10T06:04:30;-5.10;99.90
12893;DHT22;6514;48.606;9.222;2024-01-10T06:07:00;-5.20;99.90
12893;DHT22;6514;48.606;9.222;2024-01-10T06:09:28;-5.20;99.90
12893;DHT22;6514;48.606;9.222;2024-01-10T06:11:55;-5.30;99.90
12893;DHT22;6514;48.606;9.222;2024-01-10T06:14:21;-5.40;99.90
12893;DHT22;6514;48.606;9.222;2024-01-10T06:16:51;-5.40;99.90
12893;DHT22;6514;48.606;9.222;2024-01-10T06:19:18;-5.50;99.90
12893;DHT22;6514;48.606;9.222;2024-01-10T06:21:45;-5.50;99.90
12893;DHT22;6514;48.606;9.222;2024-01-10T06:24:12;-5.60;99.90
12893;DHT22;6514;48.606;9.222;2024-01-10T06:26:40;-5.60;99.90
12893;DHT22;6514;48.606;9.222;2024-01-10T06:29:07;-5.60;99.90
12893;DHT22;6514;48.606;9.222;2024-01-10T06:31:33;-5.70;99.90
12893;DHT22;6514;48.606;9.222;2024-01-10T06:34:00;-5.70;99.90
12893;DHT22;6514;48.606;9.222;2024-01-10T06:36:27;-5.80;99.90
12893;DHT22;6514;48.606;9.222;2024-01-10T06:38:54;-5.80;99.90
12893;DHT22;6514;48.606;9.222;2024-01-10T06:41:25;-5.80;99.90
12893;DHT22;6514;48.606;9.222;2024-01-10T06:43:53;-5.80;99.90
12893;DHT22;6514;48.606;9.222;2024-01-10T06:46:20;-5.80;99.90
12893;DHT22;6514;48.606;9.222;2024-01-10T06:48:47;-5.90;99.90
12893;DHT22;6514;48.606;9.222;2024-01-10T06:51:15;-5.90;99.90
12893;DHT22;6514;48.606;9.222;2024-01-10T06:53:42;-5.90;99.90
12893;DHT22;6514;48.606;9.222;2024-01-10T06:56:10;-5.80;99.90
12893;DHT22;6514;48.606;9.222;2024-01-10T06:58:39;-5.80;99.90
12893;DHT22;6514;48.606;9.222;2024-01-10T07:01:12;-5.70;99.90
12893;DHT22;6514;48.606;9.222;2024-01-10T07:03:39;-5.70;99.90
12893;DHT22;6514;48.606;9.222;2024-01-10T07:06:06;-5.70;99.90
12893;DHT22;6514;48.606;9.222;2024-01-10T07:08:33;-5.70;99.90
12893;DHT22;6514;48.606;9.222;2024-01-10T07:11:03;-5.70;99.90
12893;DHT22;6514;48.606;9.222;2024-01-10T07:13:30;-5.70;99.90
12893;DHT22;6514;48.606;9.222;2024-01-10T07:15:57;-5.60;99.90
12893;DHT22;6514;48.606;9.222;2024-01-10T07:18:28;-5.60;99.90
12893;DHT22;6514;48.606;9.222;2024-01-10T07:20:55;-5.50;99.90
12893;DHT22;6514;48.606;9.222;2024-01-10T07:23:22;-5.40;99.90
12893;DHT22;6514;48.606;9.222;2024-01-10T07:25:49;-5.40;99.90
12893;DHT22;6514;48.606;9.222;2024-01-10T07:28:16;-5.20;99.90
12893;DHT22;6514;48.606;9.222;2024-01-10T07:30:43;-5.20;99.90
12893;DHT22;6514;48.606;9.222;2024-01-10T07:33:10;-5.20;99.90
12893;DHT22;6514;48.606;9.222;2024-01-10T07:35:39;-5.10;99.90
12893;DHT22;6514;48.606;9.222;2024-01-10T07:38:05;-5.10;99.90
12893;DHT22;6514;48.606;9.222;2024-01-10T07:40:33;-5.10;99.90
12893;DHT22;6514;48.606;9.222;2024-01-10T07:43:01;-5.00;99.90
12893;DHT22;6514;48.606;9.222;2024-01-10T07:45:28;-5.00;99.90
12893;DHT22;6514;48.606;9.222;2024-01-10T07:47:58;-4.90;99.90
12893;DHT22;6514;48.606;9.222;2024-01-10T07:50:25;-4.80;99.90
12893;DHT22;6514;48.606;9.222;2024-01-10T07:52:54;-4.80;99.90
12893;DHT22;6514;48.606;9.222;2024-01-10T07:55:26;-4.70;99.90
12893;DHT22;6514;48.606;9.222;2024-01-10T07:57:55;-4.60;99.90
12893;DHT22;6514;48.606;9.222;2024-01-10T08:00:22;-4.50;99.90
12893;DHT22;6514;48.606;9.222;2024-01-10T08:02:48;-4.40;99.90
12893;DHT22;6514;48.606;9.222;2024-01-10T08:05:16;-4.30;99.90
12893;DHT22;6514;48.606;9.222;2024-01-10T08:07:43;-4.10;99.90
12893;DHT22;6514;48.606;9.222;2024-01-10T08:10:11;-3.90;99.90
12893;DHT22;6514;48.606;9.222;2024-01-10T08:12:39;-3.70;99.90
12893;DHT22;6514;48.606;9.222;2024-01-10T08:15:07;-3.50;99.90
12893;DHT22;6514;48.606;9.222;2024-01-10T08:17:34;-3.20;99.90
12893;DHT22;6514;48.606;9.222;2024-01-10T08:20:03;-3.00;99.90
12893;DHT22;6514;48.606;9.222;2024-01-10T08:22:31;-2.70;99.90
12893;DHT22;6514;48.606;9.222;2024-01-10T08:24:58;-2.50;99.90
12893;DHT22;6514;48.606;9.222;2024-01-10T08:27:26;-2.20;99.90
12893;DHT22;6514;48.606;9.222;2024-01-10T08:29:53;-2.00;99.90
12893;DHT22;6514;48.606;9.222;2024-01-10T08:32:20;-1.80;99.90
12893;DHT22;6514;48.606;9.222;2024-01-10T08:34:48;-1.50;99.90
12893;DHT22;6514;48.606;9.222;2024-01-10T08:37:15;-1.30;99.90
12893;DHT22;6514;48.606;9.222;2024-01-10T08:39:42;-1.10;99.90
12893;DHT22;6514;48.606;9.222;2024-01-10T08:42:09;-1.00;99.90
12893;DHT22;6514;48.606;9.222;2024-01-10T08:44:38;-0.90;99.90
12893;DHT22;6514;48.606;9.222;2024-01-10T08:47:05;-0.70;99.90
12893;DHT22;6514;48.606;9.222;2024-01-10T08:49:32;-0.70;99.90
12893;DHT22;6514;48.606;9.222;2024-01-10T08:51:59;-0.50;99.90
12893;DHT22;6514;48.606;9.222;2024-01-10T08:54:25;-0.20;99.90
12893;DHT22;6514;48.606;9.222;2024-01-10T08:56:52;-0.10;99.90
12893;DHT22;6514;48.606;9.222;2024-01-10T08:59:19;0.10;99.90
12893;DHT22;6514;48.606;9.222;2024-01-10T09:01:48;0.40;99.90
12893;DHT22;6514;48.606;9.222;2024-01-10T09:04:15;0.80;99.90
12893;DHT22;6514;48.606;9.222;2024-01-10T09:06:42;1.20;99.90
12893;DHT22;6514;48.606;9.222;2024-01-10T09:09:09;1.60;99.90
12893;DHT22;6514;48.606;9.222;2024-01-10T09:11:38;1.80;99.90
12893;DHT22;6514;48.606;9.222;2024-01-10T09:14:05;1.80;99.90
12893;DHT22;6514;48.606;9.222;2024-01-10T09:16:34;1.90;99.90
12893;DHT22;6514;48.606;9.222;2024-01-10T09:19:02;2.20;99.90
12893;DHT22;6514;48.606;9.222;2024-01-10T09:21:29;2.70;99.90
12893;DHT22;6514;48.606;9.222;2024-01-10T09:23:56;2.70;99.90
12893;DHT22;6514;48.606;9.222;2024-01-10T09:26:23;3.00;99.90
12893;DHT22;6514;48.606;9.222;2024-01-10T09:28:49;3.30;99.90
12893;DHT22;6514;48.606;9.222;2024-01-10T09:31:18;3.50;99.90
12893;DHT22;6514;48.606;9.222;2024-01-10T09:33:44;3.70;99.90
12893;DHT22;6514;48.606;9.222;2024-01-10T09:36:12;3.70;99.90
12893;DHT22;6514;48.606;9.222;2024-01-10T09:38:40;3.60;99.90
12893;DHT22;6514;48.606;9.222;2024-01-10T09:41:07;3.20;99.90
12893;DHT22;6514;48.606;9.222;2024-01-10T09:43:34;2.90;99.90
12893;DHT22;6514;48.606;9.222;2024-01-10T09:46:01;2.40;99.90
12893;DHT22;6514;48.606;9.222;2024-01-10T09:48:29;2.20;99.90
12893;DHT22;6514;48.606;9.222;2024-01-10T09:50:56;2.00;99.90
12893;DHT22;6514;48.606;9.222;2024-01-10T09:53:25;1.90;99.90
12893;DHT22;6514;48.606;9.222;2024-01-10T09:55:53;1.70;99.90
12893;DHT22;6514;48.606;9.222;2024-01-10T09:58:23;1.60;99.90
12893;DHT22;6514;48.606;9.222;2024-01-10T10:00:50;1.20;99.90
12893;DHT22;6514;48.606;9.222;2024-01-10T10:03:19;1.20;99.90
12893;DHT22;6514;48.606;9.222;2024-01-10T10:05:46;1.30;99.90
12893;DHT22;6514;48.606;9.222;2024-01-10T10:08:14;1.30;99.90
12893;DHT22;6514;48.606;9.222;2024-01-10T10:10:48;1.30;99.90
12893;DHT22;6514;48.606;9.222;2024-01-10T10:13:24;1.50;99.90
12893;DHT22;6514;48.606;9.222;2024-01-10T10:15:58;1.50;99.90
12893;DHT22;6514;48.606;9.222;2024-01-10T10:18:25;1.70;99.90
12893;DHT22;6514;48.606;9.222;2024-01-10T10:21:06;1.80;99.90
12893;DHT22;6514;48.606;9.222;2024-01-10T10:23:34;2.10;99.90
12893;DHT22;6514;48.606;9.222;2024-01-10T10:26:11;2.40;99.90
12893;DHT22;6514;48.606;9.222;2024-01-10T10:28:40;2.40;99.90
12893;DHT22;6514;48.606;9.222;2024-01-10T10:31:07;2.30;99.90
12893;DHT22;6514;48.606;9.222;2024-01-10T10:33:34;2.20;99.90
12893;DHT22;6514;48.606;9.222;2024-01-10T10:36:01;2.30;99.90
12893;DHT22;6514;48.606;9.222;2024-01-10T10:38:28;2.40;99.90
12893;DHT22;6514;48.606;9.222;2024-01-10T10:40:55;2.60;99.90
12893;DHT22;6514;48.606;9.222;2024-01-10T10:43:25;2.60;99.90
12893;DHT22;6514;48.606;9.222;2024-01-10T10:45:52;2.80;99.90
12893;DHT22;6514;48.606;9.222;2024-01-10T10:48:21;2.70;99.90
12893;DHT22;6514;48.606;9.222;2024-01-10T10:50:54;2.80;99.90
12893;DHT22;6514;48.606;9.222;2024-01-10T10:53:24;3.30;99.90
12893;DHT22;6514;48.606;9.222;2024-01-10T10:55:52;2.60;99.90
12893;DHT22;6514;48.606;9.222;2024-01-10T10:58:20;2.60;99.90
12893;DHT22;6514;48.606;9.222;2024-01-10T11:00:49;2.60;99.90
12893;DHT22;6514;48.606;9.222;2024-01-10T11:03:17;2.50;99.90
12893;DHT22;6514;48.606;9.222;2024-01-10T11:05:46;2.30;99.90
12893;DHT22;6514;48.606;9.222;2024-01-10T11:08:16;2.40;99.90
12893;DHT22;6514;48.606;9.222;2024-01-10T11:10:45;2.40;99.90
12893;DHT22;6514;48.606;9.222;2024-01-10T11:13:27;2.40;99.90
12893;DHT22;6514;48.606;9.222;2024-01-10T11:16:16;2.40;99.90
12893;DHT22;6514;48.606;9.222;2024-01-10T11:18:59;2.40;99.90
12893;DHT22;6514;48.606;9.222;2024-01-10T11:21:43;2.50;99.90
12893;DHT22;6514;48.606;9.222;2024-01-10T11:24:14;2.40;99.90
12893;DHT22;6514;48.606;9.222;2024-01-10T11:26:41;2.40;99.90
12893;DHT22;6514;48.606;9.222;2024-01-10T11:29:09;2.50;99.90
12893;DHT22;6514;48.606;9.222;2024-01-10T11:31:40;2.50;99.90
12893;DHT22;6514;48.606;9.222;2024-01-10T11:34:08;2.50;99.90
12893;DHT22;6514;48.606;9.222;2024-01-10T11:36:38;2.40;99.90
12893;DHT22;6514;48.606;9.222;2024-01-10T11:39:05;2.30;99.90
12893;DHT22;6514;48.606;9.222;2024-01-10T11:41:34;2.40;99.90
12893;DHT22;6514;48.606;9.222;2024-01-10T11:44:26;2.40;99.90
12893;DHT22;6514;48.606;9.222;2024-01-10T11:46:55;2.40;99.90
12893;DHT22;6514;48.606;9.222;2024-01-10T11:49:23;2.40;99.90
12893;DHT22;6514;48.606;9.222;2024-01-10T11:51:52;2.40;99.90
12893;DHT22;6514;48.606;9.222;2024-01-10T11:54:40;2.50;99.90
12893;DHT22;6514;48.606;9.222;2024-01-10T11:57:10;2.50;99.90
12893;DHT22;6514;48.606;9.222;2024-01-10T11:59:38;2.60;99.90
12893;DHT22;6514;48.606;9.222;2024-01-10T12:02:09;2.80;99.90
12893;DHT22;6514;48.606;9.222;2024-01-10T12:04:36;2.70;99.90
12893;DHT22;6514;48.606;9.222;2024-01-10T12:07:07;2.80;99.90
12893;DHT22;6514;48.606;9.222;2024-01-10T12:09:34;2.80;99.90
12893;DHT22;6514;48.606;9.222;2024-01-10T12:12:04;2.80;99.90
12893;DHT22;6514;48.606;9.222;2024-01-10T12:14:31;2.80;99.90
12893;DHT22;6514;48.606;9.222;2024-01-10T12:16:59;2.80;99.90
12893;DHT22;6514;48.606;9.222;2024-01-10T12:19:27;2.80;99.90
12893;DHT22;6514;48.606;9.222;2024-01-10T12:21:54;2.90;99.90
12893;DHT22;6514;48.606;9.222;2024-01-10T12:24:21;2.90;99.90
12893;DHT22;6514;48.606;9.222;2024-01-10T12:26:49;2.90;99.90
12893;DHT22;6514;48.606;9.222;2024-01-10T12:29:17;2.70;99.90
12893;DHT22;6514;48.606;9.222;2024-01-10T12:31:45;2.70;99.90
12893;DHT22;6514;48.606;9.222;2024-01-10T12:34:12;2.70;99.90
12893;DHT22;6514;48.606;9.222;2024-01-10T12:36:41;2.60;99.90
12893;DHT22;6514;48.606;9.222;2024-01-10T12:39:08;2.60;99.90
12893;DHT22;6514;48.606;9.222;2024-01-10T12:41:35;2.70;99.90
12893;DHT22;6514;48.606;9.222;2024-01-10T12:44:04;2.60;99.90
12893;DHT22;6514;48.606;9.222;2024-01-10T12:46:32;2.60;99.90
12893;DHT22;6514;48.606;9.222;2024-01-10T12:49:00;2.60;99.90
12893;DHT22;6514;48.606;9.222;2024-01-10T12:51:28;2.70;99.90
12893;DHT22;6514;48.606;9.222;2024-01-10T12:53:57;2.60;99.90
12893;DHT22;6514;48.606;9.222;2024-01-10T12:56:28;2.70;99.90
12893;DHT22;6514;48.606;9.222;2024-01-10T12:59:01;2.80;99.90
12893;DHT22;6514;48.606;9.222;2024-01-10T13:01:28;3.00;99.90
12893;DHT22;6514;48.606;9.222;2024-01-10T13:03:56;2.90;99.90
12893;DHT22;6514;48.606;9.222;2024-01-10T13:06:23;3.00;99.90
12893;DHT22;6514;48.606;9.222;2024-01-10T13:08:50;2.90;99.90
12893;DHT22;6514;48.606;9.222;2024-01-10T13:11:19;2.90;99.90
12893;DHT22;6514;48.606;9.222;2024-01-10T13:13:46;2.90;99.90
12893;DHT22;6514;48.606;9.222;2024-01-10T13:16:13;2.90;99.90
12893;DHT22;6514;48.606;9.222;2024-01-10T13:18:40;2.80;99.90
12893;DHT22;6514;48.606;9.222;2024-01-10T13:21:07;2.60;99.90
12893;DHT22;6514;48.606;9.222;2024-01-10T13:23:34;2.60;99.90
12893;DHT22;6514;48.606;9.222;2024-01-10T13:26:02;2.40;99.90
12893;DHT22;6514;48.606;9.222;2024-01-10T13:28:30;2.40;99.90
12893;DHT22;6514;48.606;9.222;2024-01-10T13:30:57;2.50;99.90
12893;DHT22;6514;48.606;9.222;2024-01-10T13:33:28;2.40;99.90
12893;DHT22;6514;48.606;9.222;2024-01-10T13:35:55;2.40;99.90
12893;DHT22;6514;48.606;9.222;2024-01-10T13:38:23;2.30;99.90
12893;DHT22;6514;48.606;9.222;2024-01-10T13:40:51;2.30;99.90
12893;DHT22;6514;48.606;9.222;2024-01-10T13:43:18;2.30;99.90
12893;DHT22;6514;48.606;9.222;2024-01-10T13:45:47;2.30;99.90
12893;DHT22;6514;48.606;9.222;2024-01-10T13:48:14;2.30;99.90
12893;DHT22;6514;48.606;9.222;2024-01-10T13:50:52;2.20;99.90
12893;DHT22;6514;48.606;9.222;2024-01-10T13:53:18;2.20;99.90
12893;DHT22;6514;48.606;9.222;2024-01-10T13:55:45;2.20;99.90
12893;DHT22;6514;48.606;9.222;2024-01-10T13:58:13;2.10;99.90
12893;DHT22;6514;48.606;9.222;2024-01-10T14:00:47;2.00;99.90
12893;DHT22;6514;48.606;9.222;2024-01-10T14:03:14;2.00;99.90
12893;DHT22;6514;48.606;9.222;2024-01-10T14:05:41;1.90;99.90
12893;DHT22;6514;48.606;9.222;2024-01-10T14:08:08;1.80;99.90
12893;DHT22;6514;48.606;9.222;2024-01-10T14:10:36;1.80;99.90
12893;DHT22;6514;48.606;9.222;2024-01-10T14:13:04;1.80;99.90
12893;DHT22;6514;48.606;9.222;2024-01-10T14:15:31;1.80;99.90
12893;DHT22;6514;48.606;9.222;2024-01-10T14:17:59;1.80;99.90
12893;DHT22;6514;48.606;9.222;2024-01-10T14:20:26;1.80;99.90
12893;DHT22;6514;48.606;9.222;2024-01-10T14:22:53;1.80;99.90
12893;DHT22;6514;48.606;9.222;2024-01-10T14:25:20;1.70;99.90
12893;DHT22;6514;48.606;9.222;2024-01-10T14:27:49;1.70;99.90
12893;DHT22;6514;48.606;9.222;2024-01-10T14:30:17;1.60;99.90
12893;DHT22;6514;48.606;9.222;2024-01-10T14:32:45;1.50;99.90
12893;DHT22;6514;48.606;9.222;2024-01-10T14:35:14;1.50;99.90
12893;DHT22;6514;48.606;9.222;2024-01-10T14:37:41;1.40;99.90
12893;DHT22;6514;48.606;9.222;2024-01-10T14:40:09;1.40;99.90
12893;DHT22;6514;48.606;9.222;2024-01-10T14:42:37;1.30;99.90
12893;DHT22;6514;48.606;9.222;2024-01-10T14:45:04;1.20;99.90
12893;DHT22;6514;48.606;9.222;2024-01-10T14:47:31;1.10;99.90
12893;DHT22;6514;48.606;9.222;2024-01-10T14:49:58;1.10;99.90
12893;DHT22;6514;48.606;9.222;2024-01-10T14:52:26;1.00;99.90
12893;DHT22;6514;48.606;9.222;2024-01-10T14:54:53;1.00;99.90
12893;DHT22;6514;48.606;9.222;2024-01-10T14:57:21;0.90;99.90
12893;DHT22;6514;48.606;9.222;2024-01-10T14:59:48;0.90;99.90
12893;DHT22;6514;48.606;9.222;2024-01-10T15:02:15;0.70;99.90
12893;DHT22;6514;48.606;9.222;2024-01-10T15:04:44;0.70;99.90
12893;DHT22;6514;48.606;9.222;2024-01-10T15:07:11;0.60;99.90
12893;DHT22;6514;48.606;9.222;2024-01-10T15:09:42;0.50;99.90
12893;DHT22;6514;48.606;9.222;2024-01-10T15:12:09;0.50;99.90
12893;DHT22;6514;48.606;9.222;2024-01-10T15:14:36;0.40;99.90
12893;DHT22;6514;48.606;9.222;2024-01-10T15:17:04;0.30;99.90
12893;DHT22;6514;48.606;9.222;2024-01-10T15:19:33;0.10;99.90
12893;DHT22;6514;48.606;9.222;2024-01-10T15:22:00;0.00;99.90
12893;DHT22;6514;48.606;9.222;2024-01-10T15:24:27;-0.10;99.90
12893;DHT22;6514;48.606;9.222;2024-01-10T15:26:56;-0.30;99.90
12893;DHT22;6514;48.606;9.222;2024-01-10T15:29:27;-0.40;99.90
12893;DHT22;6514;48.606;9.222;2024-01-10T15:31:54;-0.50;99.90
12893;DHT22;6514;48.606;9.222;2024-01-10T15:34:21;-0.60;99.90
12893;DHT22;6514;48.606;9.222;2024-01-10T15:36:50;-0.70;99.90
12893;DHT22;6514;48.606;9.222;2024-01-10T15:39:17;-0.80;99.90
12893;DHT22;6514;48.606;9.222;2024-01-10T15:41:45;-0.50;99.90
12893;DHT22;6514;48.606;9.222;2024-01-10T15:44:14;-1.00;99.90
12893;DHT22;6514;48.606;9.222;2024-01-10T15:46:41;-1.10;99.90
12893;DHT22;6514;48.606;9.222;2024-01-10T15:49:08;-1.20;99.90
12893;DHT22;6514;48.606;9.222;2024-01-10T15:51:35;-1.20;99.90
12893;DHT22;6514;48.606;9.222;2024-01-10T15:54:02;-1.30;99.90
12893;DHT22;6514;48.606;9.222;2024-01-10T15:56:29;-1.40;99.90